Time;durP1;ratioP1;P1;durP2;ratioP2;P2;SDS_P1;SDS_P2;PMS_P1;PMS_P2;Temp;Humidity;BMP_temperature;BMP_pressure;BME280_temperature;BME280_humidity;BME280_pressure;Samples;Min_cycle;Max_cycle;Signal;HPM_P1;HPM_P2
2023/09/06 00:01:10;;;;;;;8.93;6.15;;;20.90;99.90;;;;;;4247421;27;20071;-81
2023/09/06 00:03:12;;;;;;;10.63;6.22;;;20.90;99.90;;;;;;4248236;27;20047;-81
2023/09/06 00:05:12;;;;;;;10.80;5.80;;;20.80;99.90;;;;;;4247954;27;20043;-81
2023/09/06 00:07:13;;;;;;;7.97;5.85;;;20.70;99.90;;;;;;4245760;27;20129;-81
2023/09/06 00:09:14;;;;;;;7.30;5.80;;;20.70;99.90;;;;;;4242590;27;20446;-81
2023/09/06 00:11:15;;;;;;;7.10;5.68;;;20.60;99.90;;;;;;4243994;28;20475;-81
2023/09/06 00:13:17;;;;;;;6.78;5.22;;;20.60;99.90;;;;;;4248617;27;20046;-81
2023/09/06 00:15:18;;;;;;;8.75;5.35;;;20.50;99.90;;;;;;4253353;27;20058;-81
2023/09/06 00:17:19;;;;;;;8.60;5.47;;;20.50;99.90;;;;;;4253689;27;20043;-81
2023/09/06 00:19:20;;;;;;;7.32;5.43;;;20.50;99.90;;;;;;4253560;27;20038;-81
2023/09/06 00:21:22;;;;;;;9.48;5.82;;;20.40;99.90;;;;;;4253763;27;20441;-82
2023/09/06 00:23:24;;;;;;;7.32;5.63;;;20.40;99.90;;;;;;4253135;27;20193;-81
2023/09/06 00:25:26;;;;;;;10.05;6.20;;;20.40;99.90;;;;;;4253873;27;20411;-81
2023/09/06 00:27:28;;;;;;;10.75;6.32;;;20.40;99.90;;;;;;4253657;27;20042;-81
2023/09/06 00:29:29;;;;;;;9.00;6.03;;;20.40;99.90;;;;;;4248150;27;20458;-81
2023/09/06 00:31:31;;;;;;;7.45;5.25;;;20.30;99.90;;;;;;4253698;27;20047;-81
2023/09/06 00:33:34;;;;;;;7.65;5.40;;;20.30;99.90;;;;;;4234881;28;20392;-81
2023/09/06 00:35:36;;;;;;;10.02;5.93;;;20.20;99.90;;;;;;4253384;27;20164;-81
2023/09/06 00:37:39;;;;;;;7.95;5.30;;;20.20;99.90;;;;;;4253643;27;20045;-81
2023/09/06 00:39:40;;;;;;;6.57;5.05;;;20.20;99.90;;;;;;4252883;27;20058;-82
2023/09/06 00:41:41;;;;;;;6.40;5.03;;;20.20;99.90;;;;;;4235215;28;20043;-81
2023/09/06 00:43:42;;;;;;;8.38;4.60;;;20.10;99.90;;;;;;4253599;27;20364;-81
2023/09/06 00:45:45;;;;;;;6.80;5.30;;;20.00;99.90;;;;;;4253550;27;20062;-81
2023/09/06 00:47:46;;;;;;;7.72;5.28;;;20.00;99.90;;;;;;4229482;27;20123;-81
2023/09/06 00:49:47;;;;;;;9.50;5.13;;;19.90;99.90;;;;;;4235368;28;20050;-81
2023/09/06 00:51:48;;;;;;;8.65;5.85;;;19.90;99.90;;;;;;4253773;27;20479;-81
2023/09/06 00:53:49;;;;;;;8.65;5.65;;;19.90;99.90;;;;;;4217859;28;20183;-81
2023/09/06 00:55:50;;;;;;;8.55;6.20;;;21.00;99.90;;;;;;4253578;27;20543;-81
2023/09/06 00:57:51;;;;;;;10.52;5.82;;;19.90;99.90;;;;;;4253506;27;20039;-81
2023/09/06 00:59:53;;;;;;;8.50;6.80;;;19.90;99.90;;;;;;4253483;27;20058;-81
2023/09/06 01:01:55;;;;;;;10.05;6.57;;;19.90;99.90;;;;;;4253505;27;20051;-81
2023/09/06 01:03:57;;;;;;;11.13;6.95;;;19.80;99.90;;;;;;4260613;27;20059;-81
2023/09/06 01:06:12;;;;;;;8.30;6.57;;;19.80;99.90;;;;;;4255761;27;20099;-81
2023/09/06 01:08:18;;;;;;;12.18;7.07;;;19.80;99.90;;;;;;4235585;28;20047;-81
2023/09/06 01:10:19;;;;;;;11.68;6.50;;;19.70;99.90;;;;;;4236656;28;20057;-81
2023/09/06 01:12:22;;;;;;;8.57;6.15;;;19.70;99.90;;;;;;4239729;28;20155;-79
2023/09/06 01:14:24;;;;;;;10.00;7.05;;;19.60;99.90;;;;;;4246682;28;20043;-81
2023/09/06 01:16:38;;;;;;;9.20;6.93;;;19.60;99.90;;;;;;4241978;27;20047;-81
2023/09/06 01:18:39;;;;;;;11.38;7.40;;;19.60;99.90;;;;;;4237095;28;20122;-81
2023/09/06 01:20:52;;;;;;;10.23;7.10;;;19.60;99.90;;;;;;4237526;28;20415;-81
2023/09/06 01:23:06;;;;;;;9.25;6.75;;;19.60;99.90;;;;;;4237524;28;20503;-81
2023/09/06 01:25:08;;;;;;;10.02;6.68;;;19.50;99.90;;;;;;4236084;27;20039;-81
2023/09/06 01:27:09;;;;;;;10.82;7.00;;;19.50;99.90;;;;;;4250674;27;20486;-81
2023/09/06 01:29:11;;;;;;;9.05;6.65;;;19.40;99.90;;;;;;4250551;27;20110;-81
2023/09/06 01:31:11;;;;;;;9.00;6.82;;;19.40;99.90;;;;;;4250720;27;20069;-81
2023/09/06 01:33:13;;;;;;;11.60;8.23;;;19.40;99.90;;;;;;4250712;27;20509;-81
2023/09/06 01:35:15;;;;;;;10.25;7.72;;;19.30;99.90;;;;;;4250568;27;20433;-81
2023/09/06 01:37:15;;;;;;;10.57;7.35;;;19.40;99.90;;;;;;4250642;27;20395;-81
2023/09/06 01:39:16;;;;;;;10.25;7.32;;;19.30;99.90;;;;;;4251251;27;20046;-81
2023/09/06 01:41:17;;;;;;;11.95;8.02;;;19.30;99.90;;;;;;4247740;27;20148;-81
2023/09/06 01:43:18;;;;;;;11.27;8.02;;;19.30;99.90;;;;;;4249099;27;20043;-81
2023/09/06 01:45:19;;;;;;;12.13;8.65;;;19.30;99.90;;;;;;4250692;27;20035;-81
2023/09/06 01:47:19;;;;;;;14.80;9.38;;;19.30;99.90;;;;;;4250995;27;20043;-82
2023/09/06 01:49:20;;;;;;;11.52;8.70;;;19.30;99.90;;;;;;4250367;27;20046;-81
2023/09/06 01:51:22;;;;;;;11.88;9.30;;;19.30;99.90;;;;;;4251196;27;20399;-81
2023/09/06 01:53:23;;;;;;;11.93;8.95;;;19.30;99.90;;;;;;4252157;27;20039;-81
2023/09/06 01:55:24;;;;;;;11.38;8.13;;;19.30;99.90;;;;;;4250243;27;20065;-82
2023/09/06 01:57:24;;;;;;;11.48;7.65;;;19.20;99.90;;;;;;4249964;27;20398;-82
2023/09/06 01:59:25;;;;;;;13.52;8.25;;;19.30;99.90;;;;;;4244121;27;20046;-82
2023/09/06 02:01:26;;;;;;;12.20;8.77;;;19.20;99.90;;;;;;4238542;27;20066;-82
2023/09/06 02:03:29;;;;;;;9.25;7.10;;;19.20;99.90;;;;;;4233788;28;20399;-81
2023/09/06 02:05:31;;;;;;;11.90;8.00;;;19.20;99.90;;;;;;4199168;28;20059;-81
2023/09/06 02:07:32;;;;;;;10.65;8.05;;;19.20;99.90;;;;;;4215110;28;20067;-81
2023/09/06 02:09:33;;;;;;;9.80;7.70;;;19.20;99.90;;;;;;4231524;28;20044;-81
2023/09/06 02:11:34;;;;;;;10.10;7.72;;;19.10;99.90;;;;;;4232688;28;20442;-81
2023/09/06 02:13:34;;;;;;;10.25;8.10;;;19.10;99.90;;;;;;4233610;28;20506;-81
2023/09/06 02:15:35;;;;;;;13.52;7.93;;;19.10;99.90;;;;;;4238143;28;20052;-80
2023/09/06 02:17:36;;;;;;;12.45;8.70;;;19.00;99.90;;;;;;4237655;28;20048;-81
2023/09/06 02:19:37;;;;;;;13.45;8.73;;;19.00;99.90;;;;;;4254249;27;20406;-82
2023/09/06 02:21:39;;;;;;;14.35;8.85;;;19.00;99.90;;;;;;4249879;27;20043;-81
2023/09/06 02:23:40;;;;;;;14.10;8.93;;;19.00;99.90;;;;;;4249942;27;20037;-81
2023/09/06 02:25:42;;;;;;;13.02;9.00;;;19.00;99.90;;;;;;4249176;27;20108;-81
2023/09/06 02:27:43;;;;;;;14.10;10.00;;;19.00;99.90;;;;;;4231530;28;20108;-81
2023/09/06 02:29:44;;;;;;;12.05;8.70;;;19.00;99.90;;;;;;4231667;28;20139;-81
2023/09/06 02:31:45;;;;;;;15.98;9.88;;;18.90;99.90;;;;;;4249728;27;20054;-81
2023/09/06 02:33:46;;;;;;;13.85;8.90;;;18.90;99.90;;;;;;4238112;27;20140;-81
2023/09/06 02:35:49;;;;;;;12.20;8.75;;;18.90;99.90;;;;;;4248383;28;20091;-81
2023/09/06 02:37:50;;;;;;;12.32;9.40;;;19.90;99.90;;;;;;4251240;28;20091;-81
2023/09/06 02:39:53;;;;;;;16.77;9.20;;;18.90;99.90;;;;;;4217263;28;20048;-81
2023/09/06 02:41:54;;;;;;;13.25;9.45;;;18.90;99.90;;;;;;4232403;28;20399;-81
2023/09/06 02:43:55;;;;;;;11.90;8.50;;;18.90;99.90;;;;;;4232379;28;20043;-81
2023/09/06 02:46:02;;;;;;;13.38;8.38;;;19.00;99.90;;;;;;4232248;28;20480;-81
2023/09/06 02:48:06;;;;;;;11.70;8.73;;;18.90;99.90;;;;;;4231967;28;20118;-81
2023/09/06 02:50:11;;;;;;;11.82;8.15;;;18.80;99.90;;;;;;4214294;28;20500;-82
2023/09/06 02:52:20;;;;;;;12.82;8.82;;;18.80;99.90;;;;;;4234128;27;20551;-81
2023/09/06 02:54:21;;;;;;;11.38;8.65;;;18.80;99.90;;;;;;4245261;27;20072;-81
2023/09/06 02:56:22;;;;;;;16.23;8.50;;;18.70;99.90;;;;;;4230979;28;20134;-81
2023/09/06 02:58:23;;;;;;;11.95;7.43;;;18.70;99.90;;;;;;4249022;27;20133;-81
2023/09/06 03:00:24;;;;;;;16.52;9.60;;;18.70;99.90;;;;;;4230845;28;20535;-81
2023/09/06 03:02:25;;;;;;;13.02;8.73;;;18.60;99.90;;;;;;4249145;27;20421;-82
2023/09/06 03:04:26;;;;;;;11.43;8.82;;;18.60;99.90;;;;;;4248436;27;20041;-81
2023/09/06 03:06:33;;;;;;;13.15;8.88;;;18.60;99.90;;;;;;4248978;27;20567;-81
2023/09/06 03:08:36;;;;;;;14.13;8.57;;;18.50;99.90;;;;;;4231254;28;20048;-82
2023/09/06 03:10:44;;;;;;;13.30;8.85;;;18.50;99.90;;;;;;4242882;27;20510;-82
2023/09/06 03:12:45;;;;;;;11.43;8.30;;;18.40;99.90;;;;;;4230208;28;20049;-82
2023/09/06 03:14:48;;;;;;;11.77;8.55;;;18.40;99.90;;;;;;4230037;28;20454;-81
2023/09/06 03:16:53;;;;;;;11.18;8.77;;;18.40;99.90;;;;;;4248918;27;20039;-81
2023/09/06 03:18:54;;;;;;;12.27;8.52;;;18.40;99.90;;;;;;4248801;27;20050;-82
2023/09/06 03:20:55;;;;;;;10.50;7.95;;;18.30;99.90;;;;;;4252840;27;20031;-81
2023/09/06 03:22:58;;;;;;;12.43;8.73;;;18.30;99.90;;;;;;4260345;27;20475;-82
2023/09/06 03:25:02;;;;;;;12.75;9.18;;;18.20;99.90;;;;;;4262549;27;20364;-81
2023/09/06 03:27:07;;;;;;;12.90;8.48;;;18.20;99.90;;;;;;4252724;27;20047;-82
2023/09/06 03:29:10;;;;;;;9.88;7.55;;;18.20;99.90;;;;;;4250508;27;20079;-82
2023/09/06 03:31:12;;;;;;;14.23;7.70;;;18.20;99.90;;;;;;4250790;27;20096;-81
2023/09/06 03:33:13;;;;;;;12.35;8.07;;;18.10;99.90;;;;;;4250245;27;20117;-82
2023/09/06 03:35:16;;;;;;;9.93;7.85;;;18.10;99.90;;;;;;4249494;27;20043;-82
2023/09/06 03:37:18;;;;;;;10.68;7.75;;;18.10;99.90;;;;;;4249625;27;20039;-82
2023/09/06 03:39:19;;;;;;;10.07;7.03;;;18.00;99.90;;;;;;4249366;27;20051;-82
2023/09/06 03:41:20;;;;;;;12.77;8.05;;;18.00;99.90;;;;;;4249256;27;20388;-82
2023/09/06 03:43:29;;;;;;;10.75;8.05;;;18.00;99.90;;;;;;4242404;27;20035;-82
2023/09/06 03:45:34;;;;;;;12.05;7.93;;;18.00;99.90;;;;;;4243411;27;20043;-81
2023/09/06 03:47:34;;;;;;;11.23;8.35;;;18.00;99.90;;;;;;4248939;27;20118;-81
2023/09/06 03:49:35;;;;;;;9.88;6.88;;;17.90;99.90;;;;;;4229972;28;20054;-81
2023/09/06 03:51:37;;;;;;;7.93;5.90;;;17.90;99.90;;;;;;4230727;28;20047;-81
2023/09/06 03:53:38;;;;;;;8.73;6.43;;;17.90;99.90;;;;;;4248894;27;20039;-82
2023/09/06 03:55:38;;;;;;;8.88;7.03;;;17.80;99.90;;;;;;4248615;27;20078;-82
2023/09/06 03:57:39;;;;;;;9.23;6.75;;;17.80;99.90;;;;;;4248348;27;20043;-81
2023/09/06 03:59:40;;;;;;;10.98;6.93;;;17.80;99.90;;;;;;4248143;27;20534;-82
2023/09/06 04:01:43;;;;;;;10.85;6.95;;;17.70;99.90;;;;;;4243204;27;20035;-82
2023/09/06 04:03:46;;;;;;;11.20;6.95;;;17.70;99.90;;;;;;4248395;27;20043;-82
2023/09/06 04:05:47;;;;;;;12.07;7.60;;;18.50;99.90;;;;;;4248139;27;20075;-82
2023/09/06 04:07:48;;;;;;;12.32;6.50;;;17.70;99.90;;;;;;4248210;27;20517;-81
2023/09/06 04:09:56;;;;;;;13.77;7.20;;;17.70;99.90;;;;;;4247624;27;20088;-82
2023/09/06 04:11:59;;;;;;;9.93;6.82;;;17.70;99.90;;;;;;4247964;28;20043;-82
2023/09/06 04:14:01;;;;;;;11.50;6.57;;;17.70;99.90;;;;;;4248297;28;20383;-81
2023/09/06 04:16:02;;;;;;;9.63;7.28;;;17.70;99.90;;;;;;4248288;27;20062;-82
2023/09/06 04:18:05;;;;;;;8.23;6.18;;;17.70;99.90;;;;;;4242522;28;20043;-82
2023/09/06 04:20:19;;;;;;;18.15;7.40;;;17.70;99.90;;;;;;4212647;28;20048;-82
2023/09/06 04:22:19;;;;;;;10.98;6.22;;;17.70;99.90;;;;;;4229733;28;20043;-82
2023/09/06 04:24:20;;;;;;;9.30;5.85;;;17.70;99.90;;;;;;4248144;28;20126;-82
2023/09/06 04:26:21;;;;;;;10.63;5.70;;;16.90;99.90;;;;;;4248267;28;20102;-81
2023/09/06 04:28:22;;;;;;;9.52;6.38;;;17.60;99.90;;;;;;4248051;28;20113;-82
2023/09/06 04:30:24;;;;;;;11.35;6.13;;;17.60;99.90;;;;;;4248019;28;20035;-82
2023/09/06 04:32:24;;;;;;;10.65;5.90;;;17.60;99.90;;;;;;4247925;28;20552;-82
2023/09/06 04:34:26;;;;;;;11.63;6.55;;;17.50;99.90;;;;;;4238124;28;20027;-82
2023/09/06 04:36:27;;;;;;;8.30;5.97;;;17.50;99.90;;;;;;4234011;28;20039;-82
2023/09/06 04:38:28;;;;;;;8.18;5.40;;;17.40;99.90;;;;;;4230921;28;20036;-82
2023/09/06 04:40:29;;;;;;;11.80;5.82;;;17.40;99.90;;;;;;4213084;28;20048;-82
2023/09/06 04:42:32;;;;;;;10.52;5.32;;;17.40;99.90;;;;;;4196044;28;20083;-81
2023/09/06 04:44:33;;;;;;;8.23;5.60;;;17.40;99.90;;;;;;4230574;28;20043;-81
2023/09/06 04:46:33;;;;;;;10.85;5.75;;;17.30;99.90;;;;;;4211970;28;20533;-81
2023/09/06 04:48:34;;;;;;;9.90;5.60;;;17.30;99.90;;;;;;4230651;28;20071;-81
2023/09/06 04:50:39;;;;;;;8.82;5.15;;;17.20;99.90;;;;;;4195537;28;20045;-81
2023/09/06 04:52:45;;;;;;;9.10;5.00;;;17.20;99.90;;;;;;4234010;28;20040;-82
2023/09/06 04:54:46;;;;;;;7.32;5.90;;;17.20;99.90;;;;;;4212693;28;20105;-82
2023/09/06 04:56:47;;;;;;;11.68;5.75;;;17.10;99.90;;;;;;4230677;28;20040;-82
2023/09/06 04:58:48;;;;;;;8.45;5.32;;;17.10;99.90;;;;;;4230699;28;20130;-82
2023/09/06 05:00:50;;;;;;;9.07;5.10;;;17.10;99.90;;;;;;4233207;27;20040;-82
2023/09/06 05:02:51;;;;;;;8.15;6.22;;;17.10;99.90;;;;;;4251033;27;20046;-82
2023/09/06 05:04:52;;;;;;;9.55;6.85;;;17.10;99.90;;;;;;4232329;28;20096;-82
2023/09/06 05:06:54;;;;;;;10.10;6.00;;;17.20;99.90;;;;;;4250733;27;20042;-81
2023/09/06 05:08:54;;;;;;;8.75;5.80;;;17.20;99.90;;;;;;4232311;28;20043;-82
2023/09/06 05:10:56;;;;;;;10.20;6.38;;;17.20;99.90;;;;;;4246207;27;20112;-83
2023/09/06 05:12:57;;;;;;;10.52;7.57;;;17.20;99.90;;;;;;4234080;27;20047;-81
2023/09/06 05:14:58;;;;;;;10.65;6.55;;;17.30;99.90;;;;;;4232978;28;20106;-82
2023/09/06 05:16:59;;;;;;;10.48;6.80;;;17.30;99.90;;;;;;4233417;28;20051;-82
2023/09/06 05:18:59;;;;;;;9.10;6.30;;;17.30;99.90;;;;;;4237554;27;20579;-82
2023/09/06 05:21:03;;;;;;;10.35;5.80;;;17.30;99.90;;;;;;4250199;27;20039;-82
2023/09/06 05:23:14;;;;;;;8.90;6.22;;;17.30;99.90;;;;;;4250577;27;20042;-82
2023/09/06 05:25:15;;;;;;;8.65;6.57;;;17.40;99.90;;;;;;4250588;27;20479;-82
2023/09/06 05:27:17;;;;;;;7.82;5.70;;;17.40;99.90;;;;;;4250529;27;20074;-82
2023/09/06 05:29:18;;;;;;;8.13;5.90;;;17.30;99.90;;;;;;4231612;28;20069;-82
2023/09/06 05:31:20;;;;;;;9.35;6.22;;;17.30;99.90;;;;;;4239236;27;20040;-82
2023/09/06 05:33:20;;;;;;;12.15;6.13;;;17.40;99.90;;;;;;4233420;28;20472;-81
2023/09/06 05:35:25;;;;;;;8.13;5.85;;;17.40;99.90;;;;;;4233234;27;20072;-82
2023/09/06 05:37:26;;;;;;;10.32;6.22;;;17.40;99.90;;;;;;4248015;27;20165;-82
2023/09/06 05:39:27;;;;;;;12.82;6.88;;;17.40;99.90;;;;;;4233367;28;20044;-81
2023/09/06 05:41:28;;;;;;;9.32;6.68;;;17.40;99.90;;;;;;4232902;28;20050;-84
2023/09/06 05:43:29;;;;;;;8.90;6.07;;;17.40;99.90;;;;;;4233313;28;20441;-83
2023/09/06 05:45:29;;;;;;;11.98;6.45;;;17.50;99.90;;;;;;4215162;28;20166;-84
2023/09/06 05:47:30;;;;;;;10.23;6.43;;;17.50;99.90;;;;;;4233419;28;20050;-83
2023/09/06 05:49:31;;;;;;;9.80;6.82;;;17.50;99.90;;;;;;4214513;28;20048;-83
2023/09/06 05:51:32;;;;;;;11.23;6.57;;;17.50;99.90;;;;;;4233034;28;20555;-84
2023/09/06 05:53:33;;;;;;;11.15;6.55;;;17.50;99.90;;;;;;4232810;28;20047;-83
2023/09/06 05:55:33;;;;;;;8.52;6.18;;;17.50;99.90;;;;;;4217954;28;20538;-84
2023/09/06 05:57:34;;;;;;;11.07;7.00;;;17.60;99.90;;;;;;4233008;28;20046;-83
2023/09/06 05:59:36;;;;;;;15.45;6.80;;;17.60;99.90;;;;;;4233013;28;20039;-84
2023/09/06 06:01:37;;;;;;;8.90;6.13;;;17.70;99.90;;;;;;4232468;28;20096;-84
2023/09/06 06:03:38;;;;;;;11.45;6.25;;;17.70;99.90;;;;;;4198029;28;20044;-83
2023/09/06 06:05:39;;;;;;;10.57;6.40;;;17.70;99.90;;;;;;4214675;28;20570;-84
2023/09/06 06:07:39;;;;;;;13.20;6.93;;;17.70;99.90;;;;;;4214447;28;20052;-84
2023/09/06 06:09:40;;;;;;;9.55;5.40;;;17.80;99.90;;;;;;4214450;28;20484;-84
2023/09/06 06:11:41;;;;;;;8.13;5.60;;;17.80;99.90;;;;;;4234753;27;20559;-84
2023/09/06 06:13:42;;;;;;;10.00;6.07;;;17.80;99.90;;;;;;4249332;27;20104;-85
2023/09/06 06:15:43;;;;;;;12.48;6.25;;;17.90;99.90;;;;;;4249588;27;20047;-86
2023/09/06 06:17:44;;;;;;;12.35;5.38;;;17.90;99.90;;;;;;4243459;27;20444;-84
2023/09/06 06:19:47;;;;;;;11.13;5.82;;;18.00;99.90;;;;;;4244595;27;20070;-83
2023/09/06 06:21:47;;;;;;;8.07;5.50;;;18.00;99.90;;;;;;4219673;27;20047;-83
2023/09/06 06:23:48;;;;;;;11.55;6.28;;;18.10;99.90;;;;;;4234508;27;20081;-82
2023/09/06 06:25:49;;;;;;;10.02;6.10;;;18.10;99.90;;;;;;4241308;27;20039;-84
2023/09/06 06:27:52;;;;;;;10.65;6.07;;;18.20;99.90;;;;;;4232179;28;20078;-84
2023/09/06 06:29:53;;;;;;;9.00;5.50;;;18.20;99.90;;;;;;4220653;28;20067;-84
2023/09/06 06:31:55;;;;;;;9.55;6.07;;;18.30;99.90;;;;;;4242460;27;20092;-84
2023/09/06 06:33:56;;;;;;;10.60;5.57;;;18.40;99.90;;;;;;4232529;28;20514;-84
2023/09/06 06:35:57;;;;;;;6.93;5.22;;;18.30;99.90;;;;;;4214161;28;20101;-84
2023/09/06 06:37:58;;;;;;;11.43;5.65;;;18.50;99.90;;;;;;4232160;28;20039;-84
2023/09/06 06:39:59;;;;;;;9.57;5.47;;;18.60;99.90;;;;;;4232491;28;20062;-84
2023/09/06 06:42:00;;;;;;;8.85;5.18;;;18.70;99.90;;;;;;4214207;28;20083;-84
2023/09/06 06:44:00;;;;;;;9.23;5.40;;;18.70;99.90;;;;;;4235069;27;20044;-84
2023/09/06 06:46:04;;;;;;;9.45;5.40;;;18.80;99.90;;;;;;4238466;27;20058;-84
2023/09/06 06:48:05;;;;;;;10.95;5.32;;;19.00;99.90;;;;;;4239498;27;20514;-82
2023/09/06 06:50:06;;;;;;;10.60;5.78;;;19.00;99.90;;;;;;4237194;27;20524;-82
2023/09/06 06:52:07;;;;;;;8.50;5.82;;;18.50;99.90;;;;;;4230549;28;20055;-83
2023/09/06 06:54:09;;;;;;;9.73;5.95;;;19.30;99.90;;;;;;4249146;27;20376;-81
2023/09/06 06:56:10;;;;;;;6.32;4.85;;;19.40;99.90;;;;;;4229495;28;20128;-82
2023/09/06 06:58:11;;;;;;;9.20;5.30;;;19.50;99.90;;;;;;4228292;28;20040;-82
2023/09/06 07:00:12;;;;;;;9.93;4.82;;;19.60;99.90;;;;;;4224967;28;20055;-82
2023/09/06 07:02:13;;;;;;;9.48;4.93;;;19.70;99.90;;;;;;4247158;27;20376;-82
2023/09/06 07:04:14;;;;;;;9.80;6.43;;;19.90;99.90;;;;;;4247963;27;20077;-82
2023/09/06 07:06:15;;;;;;;13.23;5.70;;;20.00;99.90;;;;;;4248678;27;20479;-82
2023/09/06 07:08:15;;;;;;;8.77;4.97;;;20.10;99.90;;;;;;4248570;27;20050;-82
2023/09/06 07:10:16;;;;;;;8.25;5.25;;;20.20;99.90;;;;;;4229982;28;20063;-82
2023/09/06 07:12:17;;;;;;;9.45;4.90;;;20.30;99.90;;;;;;4248356;27;20035;-82
2023/09/06 07:14:18;;;;;;;11.10;4.80;;;20.40;99.90;;;;;;4247897;27;20126;-82
2023/09/06 07:16:20;;;;;;;11.95;5.57;;;19.80;99.90;;;;;;4242370;27;20419;-82
2023/09/06 07:18:20;;;;;;;8.57;4.53;;;20.70;99.90;;;;;;4213205;28;20491;-81
2023/09/06 07:20:22;;;;;;;8.18;5.22;;;20.70;99.90;;;;;;4248225;27;20039;-82
2023/09/06 07:22:23;;;;;;;14.18;5.15;;;20.90;99.90;;;;;;4248421;27;20101;-82
2023/09/06 07:24:24;;;;;;;8.45;4.80;;;21.00;99.90;;;;;;4247453;27;20047;-82
2023/09/06 07:26:25;;;;;;;9.15;5.20;;;21.10;99.90;;;;;;4247783;27;20074;-82
2023/09/06 07:28:31;;;;;;;7.32;4.53;;;21.20;99.90;;;;;;4248314;27;20396;-82
2023/09/06 07:30:32;;;;;;;8.50;4.38;;;21.30;99.90;;;;;;4248283;27;20043;-81
2023/09/06 07:32:33;;;;;;;14.18;4.40;;;21.50;99.90;;;;;;4248299;27;20100;-82
2023/09/06 07:34:34;;;;;;;6.78;4.18;;;21.60;99.90;;;;;;4223793;28;20090;-82
2023/09/06 07:36:34;;;;;;;5.25;3.78;;;21.80;99.90;;;;;;4248244;27;20039;-82
2023/09/06 07:38:37;;;;;;;6.55;3.95;;;21.90;99.90;;;;;;4248177;27;20039;-81
2023/09/06 07:40:38;;;;;;;7.32;3.47;;;22.00;99.90;;;;;;4229578;28;20131;-81
2023/09/06 07:42:39;;;;;;;6.43;3.67;;;22.10;99.90;;;;;;4247849;27;20043;-81
2023/09/06 07:44:40;;;;;;;5.28;3.50;;;22.10;99.90;;;;;;4248111;27;20043;-82
2023/09/06 07:46:43;;;;;;;6.60;3.50;;;22.30;99.90;;;;;;4248112;27;20118;-81
2023/09/06 07:48:44;;;;;;;7.15;3.22;;;22.50;99.90;;;;;;4248096;27;20047;-82
2023/09/06 07:50:47;;;;;;;5.80;3.25;;;22.60;99.90;;;;;;4243865;27;20043;-82
2023/09/06 07:52:47;;;;;;;6.80;3.03;;;22.80;99.90;;;;;;4246918;27;20479;-82
2023/09/06 07:54:48;;;;;;;3.78;2.78;;;23.00;99.90;;;;;;4248104;27;20165;-81
2023/09/06 07:56:49;;;;;;;4.63;2.65;;;23.00;99.90;;;;;;4248054;27;20035;-82
2023/09/06 07:58:50;;;;;;;4.75;2.65;;;23.10;99.90;;;;;;4229495;28;20071;-82
2023/09/06 08:00:51;;;;;;;4.13;2.97;;;23.10;99.90;;;;;;4247646;27;20054;-82
2023/09/06 08:02:54;;;;;;;6.20;2.33;;;23.20;99.90;;;;;;4247509;27;20512;-82
2023/09/06 08:04:55;;;;;;;7.13;2.08;;;23.30;99.90;;;;;;4247867;27;20039;-82
2023/09/06 08:06:55;;;;;;;5.60;2.60;;;23.50;99.90;;;;;;4247711;27;20031;-82
2023/09/06 08:08:58;;;;;;;10.35;3.20;;;23.80;99.90;;;;;;4208120;28;20075;-82
2023/09/06 08:10:59;;;;;;;6.72;2.13;;;24.10;99.90;;;;;;4220610;28;20047;-82
2023/09/06 08:12:59;;;;;;;2.25;1.73;;;24.20;99.90;;;;;;4224478;28;20051;-84
2023/09/06 08:15:00;;;;;;;6.63;2.20;;;24.20;99.90;;;;;;4247899;28;20146;-85
2023/09/06 08:17:01;;;;;;;4.78;2.22;;;24.30;99.90;;;;;;4229549;28;20035;-84
2023/09/06 08:19:03;;;;;;;3.13;2.28;;;24.40;99.90;;;;;;4228027;28;20441;-85
2023/09/06 08:21:03;;;;;;;3.20;1.90;;;24.50;99.90;;;;;;4232202;28;20065;-85
2023/09/06 08:23:04;;;;;;;4.82;2.10;;;24.60;99.90;;;;;;4225271;28;20449;-83
2023/09/06 08:25:05;;;;;;;7.40;2.20;;;24.80;99.90;;;;;;4227798;28;20550;-84
2023/09/06 08:27:06;;;;;;;4.65;1.80;;;25.10;99.90;;;;;;4242502;28;20035;-85
2023/09/06 08:29:07;;;;;;;2.60;1.83;;;25.20;99.90;;;;;;4213020;28;20469;-85
2023/09/06 08:31:08;;;;;;;4.07;1.98;;;25.30;99.90;;;;;;4223815;28;20403;-85
2023/09/06 08:33:11;;;;;;;2.47;1.70;;;25.30;99.90;;;;;;4216975;28;20040;-84
2023/09/06 08:35:12;;;;;;;4.68;1.63;;;25.30;99.90;;;;;;4238801;27;20434;-85
2023/09/06 08:37:12;;;;;;;2.50;1.55;;;25.40;99.90;;;;;;4204828;28;20071;-84
2023/09/06 08:39:13;;;;;;;3.20;1.63;;;25.50;99.90;;;;;;4234076;28;20048;-85
2023/09/06 08:41:14;;;;;;;8.20;2.03;;;25.40;99.90;;;;;;4238734;27;20043;-84
2023/09/06 08:43:18;;;;;;;2.38;1.80;;;25.50;99.90;;;;;;4251495;27;20402;-85
2023/09/06 08:45:24;;;;;;;4.10;2.10;;;25.10;99.90;;;;;;4225062;28;20048;-84
2023/09/06 08:47:25;;;;;;;4.72;1.83;;;25.60;99.90;;;;;;4239198;27;20540;-84
2023/09/06 08:49:27;;;;;;;3.85;1.40;;;25.80;99.90;;;;;;4215720;28;20040;-85
2023/09/06 08:51:32;;;;;;;2.38;1.48;;;25.90;99.90;;;;;;4223140;28;20399;-84
2023/09/06 08:53:34;;;;;;;2.75;1.65;;;26.10;99.90;;;;;;4246492;27;20433;-84
2023/09/06 08:55:42;;;;;;;4.28;1.70;;;26.20;99.90;;;;;;4227321;28;20088;-85
2023/09/06 08:57:46;;;;;;;3.75;1.60;;;26.30;99.90;;;;;;4239024;27;20795;-85
2023/09/06 08:59:47;;;;;;;6.43;2.00;;;26.50;99.90;;;;;;4229967;28;20035;-84
2023/09/06 09:01:48;;;;;;;2.70;1.63;;;26.70;99.90;;;;;;4251137;27;20039;-84
2023/09/06 09:03:48;;;;;;;6.07;1.65;;;26.90;99.90;;;;;;4244264;27;20047;-85
2023/09/06 09:05:49;;;;;;;3.80;1.48;;;27.10;99.90;;;;;;4242948;27;20062;-84
2023/09/06 09:08:00;;;;;;;2.30;1.50;;;27.40;99.90;;;;;;4224860;28;20044;-84
2023/09/06 09:10:11;;;;;;;5.50;2.35;;;27.50;99.90;;;;;;4231509;28;20547;-85
2023/09/06 09:12:12;;;;;;;2.00;1.45;;;27.70;99.90;;;;;;4210577;28;20059;-85
2023/09/06 09:14:21;;;;;;;2.15;1.60;;;28.20;99.90;;;;;;4238681;27;20082;-82
2023/09/06 09:16:23;;;;;;;4.97;1.77;;;28.70;99.90;;;;;;4218632;28;20056;-83
2023/09/06 09:18:24;;;;;;;2.33;1.85;;;28.90;99.90;;;;;;4219361;28;20491;-82
2023/09/06 09:20:26;;;;;;;2.38;1.50;;;29.20;99.90;;;;;;4228193;28;20075;-83
2023/09/06 09:22:35;;;;;;;2.00;1.27;;;29.80;99.90;;;;;;4227064;28;20039;-84
2023/09/06 09:24:36;;;;;;;6.45;2.10;;;30.10;99.90;;;;;;4220917;28;20426;-83
2023/09/06 09:26:41;;;;;;;4.55;1.98;;;30.20;99.90;;;;;;4210043;28;20557;-83
2023/09/06 09:28:42;;;;;;;4.15;1.60;;;30.10;99.90;;;;;;4231689;28;20050;-83
2023/09/06 09:30:46;;;;;;;4.78;1.90;;;30.30;99.90;;;;;;4233109;28;20071;-82
2023/09/06 09:32:46;;;;;;;6.57;2.58;;;30.40;99.90;;;;;;4233088;28;20043;-83
2023/09/06 09:34:47;;;;;;;3.78;1.60;;;30.60;99.90;;;;;;4232137;28;20059;-82
2023/09/06 09:36:50;;;;;;;3.15;1.40;;;30.70;99.90;;;;;;4233358;28;20050;-83
2023/09/06 09:38:51;;;;;;;2.90;1.77;;;30.80;99.70;;;;;;4233155;28;20043;-82
2023/09/06 09:41:08;;;;;;;4.93;1.50;;;31.20;99.60;;;;;;4233133;28;20052;-83
2023/09/06 09:43:09;;;;;;;4.20;1.50;;;31.20;99.30;;;;;;4227100;28;20050;-83
2023/09/06 09:45:11;;;;;;;4.78;1.30;;;31.40;99.10;;;;;;4231349;28;20079;-84
2023/09/06 09:47:13;;;;;;;3.47;1.80;;;31.50;99.00;;;;;;4231653;28;20118;-83
2023/09/06 09:49:16;;;;;;;5.60;1.40;;;31.60;98.60;;;;;;4220591;28;20392;-84
2023/09/06 09:51:20;;;;;;;4.78;1.70;;;31.30;98.00;;;;;;4226422;28;20043;-83
2023/09/06 09:53:25;;;;;;;1.88;1.10;;;31.20;98.20;;;;;;4233230;28;20060;-83
2023/09/06 09:55:31;;;;;;;4.22;1.83;;;31.10;98.50;;;;;;4228234;28;20039;-84
2023/09/06 09:57:34;;;;;;;4.30;1.60;;;31.20;98.50;;;;;;4228163;28;20563;-84
2023/09/06 09:59:39;;;;;;;4.90;1.70;;;31.30;98.30;;;;;;4232583;28;20085;-83
2023/09/06 10:01:40;;;;;;;4.22;1.45;;;31.50;96.80;;;;;;4233320;28;20048;-83
2023/09/06 10:03:42;;;;;;;2.85;2.13;;;31.20;97.80;;;;;;4227244;28;20468;-84
2023/09/06 10:05:43;;;;;;;5.15;1.20;;;31.00;97.40;;;;;;4216298;28;20541;-83
2023/09/06 10:07:44;;;;;;;1.73;1.52;;;30.80;97.40;;;;;;4216722;28;20052;-83
2023/09/06 10:09:47;;;;;;;10.00;2.55;;;30.80;97.20;;;;;;4217495;28;20083;-83
2023/09/06 10:11:51;;;;;;;2.33;1.50;;;30.80;97.00;;;;;;4216308;28;20047;-83
2023/09/06 10:13:52;;;;;;;1.83;1.30;;;30.90;96.80;;;;;;4218845;28;20052;-83
2023/09/06 10:15:55;;;;;;;2.58;1.27;;;31.20;97.10;;;;;;4233710;27;20052;-83
2023/09/06 10:18:06;;;;;;;1.70;1.15;;;31.20;97.00;;;;;;4236794;27;20097;-83
2023/09/06 10:20:12;;;;;;;2.63;1.50;;;31.30;94.70;;;;;;4238161;27;20031;-83
2023/09/06 10:22:15;;;;;;;6.57;1.70;;;31.20;95.30;;;;;;4221104;28;20031;-88
2023/09/06 10:24:21;;;;;;;3.03;1.27;;;31.20;95.10;;;;;;4234589;27;20114;-80
2023/09/06 10:26:36;;;;;;;2.70;1.50;;;31.20;94.20;;;;;;4228425;28;20134;-80
2023/09/06 10:28:37;;;;;;;3.03;1.30;;;31.20;94.40;;;;;;4244065;27;20097;-80
2023/09/06 10:30:44;;;;;;;4.00;1.50;;;31.30;94.80;;;;;;4230936;28;20050;-80
2023/09/06 10:32:46;;;;;;;2.63;1.23;;;31.40;93.80;;;;;;4226806;28;20123;-80